createdAt,value
2018-03-17T00:01:36.722Z,8.48
2018-03-17T00:04:03.107Z,13.45
2018-03-17T00:06:29.419Z,15.23
2018-03-17T00:08:56.507Z,11.57
2018-03-17T00:11:22.843Z,16.60
2018-03-17T00:13:49.166Z,12.10
2018-03-17T00:16:15.487Z,11.10
2018-03-17T00:18:41.795Z,11.20
2018-03-17T00:21:08.858Z,14.38
2018-03-17T00:23:35.173Z,11.38
2018-03-17T00:26:02.230Z,13.68
2018-03-17T00:28:28.546Z,12.20
2018-03-17T00:30:55.602Z,13.45
2018-03-17T00:33:23.675Z,13.15
2018-03-17T00:35:50.018Z,11.60
2018-03-17T00:38:16.323Z,14.38
2018-03-17T00:40:44.411Z,9.98
2018-03-17T00:43:10.737Z,12.00
2018-03-17T00:45:38.059Z,10.10
2018-03-17T00:48:05.110Z,12.32
2018-03-17T00:50:31.493Z,14.15
2018-03-17T00:52:57.815Z,12.57
2018-03-17T00:55:24.156Z,12.68
2018-03-17T00:57:50.498Z,17.35
2018-03-17T01:00:16.870Z,9.95
2018-03-17T01:02:43.197Z,10.75
2018-03-17T01:05:09.567Z,9.52
2018-03-17T01:07:36.270Z,12.43
2018-03-17T01:10:02.591Z,9.68
2018-03-17T01:12:28.895Z,11.25
2018-03-17T01:14:56.236Z,8.27
2018-03-17T01:17:22.595Z,11.85
2018-03-17T01:19:49.901Z,13.90
2018-03-17T01:22:16.259Z,9.77
2018-03-17T01:24:42.570Z,10.90
2018-03-17T01:27:08.870Z,9.68
2018-03-17T01:29:36.067Z,10.65
2018-03-17T01:32:02.410Z,10.60
2018-03-17T01:34:28.735Z,6.93
2018-03-17T01:36:55.043Z,8.18
2018-03-17T01:39:22.347Z,8.95
2018-03-17T01:41:48.694Z,7.62
2018-03-17T01:44:15.006Z,10.60
2018-03-17T01:46:42.797Z,14.07
2018-03-17T01:49:09.868Z,12.73
2018-03-17T01:51:36.207Z,10.55
2018-03-17T01:54:15.763Z,9.15
2018-03-17T01:56:42.070Z,8.75
2018-03-17T01:59:08.390Z,9.65
2018-03-17T02:01:35.442Z,12.52
2018-03-17T02:04:01.746Z,8.68
2018-03-17T02:06:28.046Z,10.70
2018-03-17T02:08:54.335Z,10.73
2018-03-17T02:11:21.656Z,13.20
2018-03-17T02:13:47.970Z,12.60
2018-03-17T02:16:14.287Z,10.70
2018-03-17T02:18:40.602Z,11.30
2018-03-17T02:21:06.928Z,10.77
2018-03-17T02:23:33.248Z,9.65
2018-03-17T02:25:59.587Z,9.45
2018-03-17T02:28:25.907Z,10.32
2018-03-17T02:30:53.240Z,11.40
2018-03-17T02:33:20.301Z,8.43
2018-03-17T02:35:46.629Z,9.00
2018-03-17T02:38:13.679Z,9.10
2018-03-17T02:40:40.004Z,8.77
2018-03-17T02:43:07.067Z,7.97
2018-03-17T02:45:33.384Z,7.22
2018-03-17T02:48:00.447Z,9.93
2018-03-17T02:50:26.775Z,8.13
2018-03-17T02:52:53.100Z,7.25
2018-03-17T02:55:20.182Z,7.62
2018-03-17T02:57:46.490Z,6.22
2018-03-17T03:00:12.815Z,8.48
2018-03-17T03:02:40.195Z,6.62
2018-03-17T03:05:07.545Z,8.68
2018-03-17T03:07:33.878Z,5.55
2018-03-17T03:10:00.198Z,5.80
2018-03-17T03:12:26.575Z,6.95
2018-03-17T03:14:52.883Z,6.50
2018-03-17T03:17:19.227Z,6.40
2018-03-17T03:19:45.553Z,5.85
2018-03-17T03:22:11.869Z,6.22
2018-03-17T03:24:38.260Z,7.15
2018-03-17T03:27:07.043Z,7.75
2018-03-17T03:29:33.376Z,6.45
2018-03-17T03:31:59.678Z,6.43
2018-03-17T03:34:26.970Z,6.68
2018-03-17T03:36:54.018Z,6.18
2018-03-17T03:39:21.076Z,6.68
2018-03-17T03:41:48.114Z,5.10
2018-03-17T03:44:15.616Z,6.40
2018-03-17T03:46:41.953Z,9.13
2018-03-17T03:49:08.314Z,8.68
2018-03-17T03:51:34.631Z,6.60
2018-03-17T03:54:00.954Z,5.60
2018-03-17T03:56:27.275Z,7.97
2018-03-17T03:58:53.591Z,11.27
2018-03-17T04:01:19.906Z,7.97
2018-03-17T04:03:46.215Z,6.82
2018-03-17T04:06:13.346Z,5.15
2018-03-17T04:08:39.663Z,4.70
2018-03-17T04:11:05.998Z,6.72
2018-03-17T04:13:32.305Z,7.12
2018-03-17T04:15:58.646Z,5.93
2018-03-17T04:18:24.963Z,6.43
2018-03-17T04:20:51.290Z,6.72
2018-03-17T04:23:17.630Z,8.23
2018-03-17T04:25:43.955Z,7.10
2018-03-17T04:28:10.286Z,5.37
2018-03-17T04:30:36.619Z,6.03
2018-03-17T04:33:02.936Z,7.80
2018-03-17T04:35:29.280Z,6.65
2018-03-17T04:37:55.595Z,6.95
2018-03-17T04:40:22.958Z,6.90
2018-03-17T04:42:49.275Z,6.43
2018-03-17T04:45:15.591Z,8.07
2018-03-17T04:47:42.638Z,5.90
2018-03-17T04:50:09.690Z,7.15
2018-03-17T04:52:36.014Z,8.18
2018-03-17T04:55:03.090Z,8.13
2018-03-17T04:57:30.510Z,10.85
2018-03-17T04:59:57.590Z,8.52
2018-03-17T05:02:23.898Z,7.05
2018-03-17T05:04:50.967Z,7.85
2018-03-17T05:07:17.342Z,13.75
2018-03-17T05:09:43.655Z,9.25
2018-03-17T05:12:09.970Z,9.25
2018-03-17T05:14:36.282Z,8.27
2018-03-17T05:17:02.603Z,11.20
2018-03-17T05:19:29.666Z,9.77
2018-03-17T05:21:56.977Z,8.98
2018-03-17T05:24:23.328Z,10.35
2018-03-17T05:26:51.050Z,8.70
2018-03-17T05:29:18.362Z,10.30
2018-03-17T05:31:44.815Z,10.20
2018-03-17T05:34:11.121Z,11.95
2018-03-17T05:36:38.174Z,9.65
2018-03-17T05:39:04.514Z,9.60
2018-03-17T05:41:30.829Z,12.10
2018-03-17T05:43:57.891Z,10.35
2018-03-17T05:46:25.238Z,10.63
2018-03-17T05:48:51.544Z,8.95
2018-03-17T05:51:18.611Z,10.98
2018-03-17T05:53:45.791Z,10.43
2018-03-17T05:56:12.131Z,13.07
2018-03-17T05:58:39.483Z,9.35
2018-03-17T06:01:05.806Z,10.50
2018-03-17T06:03:32.132Z,10.57
2018-03-17T06:05:58.455Z,9.90
2018-03-17T06:08:24.774Z,10.75
2018-03-17T06:10:51.075Z,9.60
2018-03-17T06:13:17.390Z,8.55
2018-03-17T06:15:43.707Z,9.63
2018-03-17T06:18:10.018Z,7.70
2018-03-17T06:20:36.343Z,11.12
2018-03-17T06:23:02.654Z,8.65
2018-03-17T06:25:29.729Z,9.15
2018-03-17T06:27:56.115Z,8.57
2018-03-17T06:30:23.179Z,9.55
2018-03-17T06:32:50.271Z,11.10
2018-03-17T06:35:16.583Z,10.02
2018-03-17T06:37:42.903Z,8.40
2018-03-17T06:40:09.243Z,8.18
2018-03-17T06:42:35.559Z,8.20
2018-03-17T06:45:02.655Z,8.75
2018-03-17T06:47:28.972Z,8.57
2018-03-17T06:49:55.384Z,8.43
2018-03-17T06:52:21.707Z,9.88
2018-03-17T06:54:48.762Z,8.52
2018-03-17T06:57:15.083Z,9.60
2018-03-17T06:59:42.139Z,9.93
2018-03-17T07:02:08.442Z,8.48
2018-03-17T07:04:34.746Z,11.02
2018-03-17T07:07:01.067Z,11.88
2018-03-17T07:09:29.094Z,14.20
2018-03-17T07:11:56.142Z,13.38
2018-03-17T07:14:23.195Z,13.88
2018-03-17T07:16:49.524Z,15.98
2018-03-17T07:19:16.541Z,17.00
2018-03-17T07:21:43.889Z,17.33
2018-03-17T07:24:10.211Z,42.88
2018-03-17T07:26:36.543Z,14.10
2018-03-17T07:29:02.875Z,17.33
2018-03-17T07:31:29.185Z,20.05
2018-03-17T07:33:55.506Z,19.65
2018-03-17T07:36:21.842Z,18.95
2018-03-17T07:38:48.167Z,18.58
2018-03-17T07:41:14.523Z,18.30
2018-03-17T07:43:40.834Z,17.95
2018-03-17T07:46:07.150Z,16.05
2018-03-17T07:48:33.466Z,16.58
2018-03-17T07:50:59.840Z,17.80
2018-03-17T07:53:26.167Z,17.58
2018-03-17T07:55:52.480Z,20.73
2018-03-17T07:58:18.831Z,16.00
2018-03-17T08:00:45.315Z,15.15
2018-03-17T08:03:12.370Z,15.98
2018-03-17T08:05:38.687Z,15.43
2018-03-17T08:08:05.745Z,15.93
2018-03-17T08:10:32.807Z,15.75
2018-03-17T08:12:59.134Z,14.30
2018-03-17T08:15:25.454Z,16.67
2018-03-17T08:17:52.510Z,16.83
2018-03-17T08:20:18.831Z,16.67
2018-03-17T08:22:45.248Z,16.87
2018-03-17T08:25:11.618Z,15.27
2018-03-17T08:27:37.996Z,17.58
2018-03-17T08:30:04.318Z,16.00
2018-03-17T08:32:30.639Z,15.30
2018-03-17T08:34:56.963Z,14.85
2018-03-17T08:37:23.280Z,19.48
2018-03-17T08:39:50.746Z,17.00
2018-03-17T08:42:17.127Z,16.77
2018-03-17T08:44:44.183Z,14.68
2018-03-17T08:47:11.244Z,14.48
2018-03-17T08:49:37.554Z,16.40
2018-03-17T08:52:04.626Z,14.20
2018-03-17T08:54:30.988Z,15.77
2018-03-17T08:56:57.346Z,15.00
2018-03-17T08:59:23.682Z,20.50
2018-03-17T09:01:50.537Z,21.17
2018-03-17T09:04:17.599Z,19.87
2018-03-17T09:06:44.737Z,18.77
2018-03-17T09:09:11.811Z,22.37
2018-03-17T09:11:38.123Z,25.47
2018-03-17T09:14:05.177Z,20.53
2018-03-17T09:16:31.555Z,25.17
2018-03-17T09:18:57.891Z,24.75
2018-03-17T09:21:24.211Z,26.05
2018-03-17T09:23:50.537Z,29.33
2018-03-17T09:26:16.851Z,25.83
2018-03-17T09:28:43.179Z,28.08
2018-03-17T09:31:09.612Z,28.40
2018-03-17T09:33:35.934Z,27.42
2018-03-17T09:36:02.265Z,32.83
2018-03-17T09:38:28.590Z,30.08
2018-03-17T09:40:55.644Z,27.02
2018-03-17T09:43:21.987Z,26.87
2018-03-17T09:45:48.307Z,30.00
2018-03-17T09:48:14.621Z,28.15
2018-03-17T09:50:41.682Z,32.03
2018-03-17T09:53:08.017Z,28.25
2018-03-17T09:55:34.338Z,29.20
2018-03-17T09:58:01.420Z,25.75
2018-03-17T10:00:27.756Z,29.25
2018-03-17T10:02:54.070Z,28.33
2018-03-17T10:05:20.382Z,31.25
2018-03-17T10:07:47.461Z,30.27
2018-03-17T10:10:13.777Z,27.15
2018-03-17T10:12:40.090Z,26.17
2018-03-17T10:15:07.147Z,30.20
2018-03-17T10:17:33.483Z,26.27
2018-03-17T10:20:00.800Z,30.37
2018-03-17T10:22:27.206Z,33.17
2018-03-17T10:24:53.535Z,30.58
2018-03-17T10:27:19.847Z,28.90
2018-03-17T10:29:46.159Z,31.00
2018-03-17T10:32:12.470Z,27.77
2018-03-17T10:34:39.537Z,28.75
2018-03-17T10:37:05.870Z,28.65
2018-03-17T10:39:32.182Z,26.08
2018-03-17T10:41:59.812Z,28.90
2018-03-17T10:44:26.130Z,31.37
2018-03-17T10:46:52.463Z,25.90
2018-03-17T10:49:18.773Z,28.75
2018-03-17T10:51:45.366Z,30.55
2018-03-17T10:54:12.446Z,26.08
2018-03-17T10:56:38.790Z,29.05
2018-03-17T10:59:05.154Z,25.70
2018-03-17T11:01:34.530Z,26.25
2018-03-17T11:04:00.872Z,26.00
2018-03-17T11:06:27.191Z,25.80
2018-03-17T11:08:53.495Z,28.80
2018-03-17T11:11:19.851Z,29.87
2018-03-17T11:13:46.175Z,27.85
2018-03-17T11:16:12.502Z,21.87
2018-03-17T11:18:38.801Z,25.98
2018-03-17T11:21:06.883Z,29.67
2018-03-17T11:23:33.202Z,25.58
2018-03-17T11:26:00.254Z,33.00
2018-03-17T11:28:26.633Z,30.33
2018-03-17T11:30:52.913Z,32.03
2018-03-17T11:33:19.975Z,31.62
2018-03-17T11:35:47.309Z,33.85
2018-03-17T11:38:14.401Z,34.15
2018-03-17T11:40:40.749Z,34.75
2018-03-17T11:43:07.090Z,36.80
2018-03-17T11:45:34.396Z,41.10
2018-03-17T11:48:00.730Z,45.63
2018-03-17T11:50:27.058Z,41.08
2018-03-17T11:52:53.380Z,42.15
2018-03-17T11:55:20.430Z,41.22
2018-03-17T11:57:47.478Z,35.95
2018-03-17T12:00:14.534Z,41.65
2018-03-17T12:02:40.855Z,39.33
2018-03-17T12:05:07.907Z,35.63
2018-03-17T12:07:34.210Z,33.03
2018-03-17T12:10:02.021Z,32.22
2018-03-17T12:12:28.395Z,29.25
2018-03-17T12:14:54.706Z,28.55
2018-03-17T12:17:21.031Z,29.30
2018-03-17T12:19:48.355Z,27.00
2018-03-17T12:22:15.427Z,26.65
2018-03-17T12:24:41.735Z,24.12
2018-03-17T12:27:08.047Z,22.85
2018-03-17T12:29:34.521Z,21.85
2018-03-17T12:32:00.835Z,22.35
2018-03-17T12:34:27.154Z,25.60
2018-03-17T12:36:55.237Z,24.77
2018-03-17T12:39:21.559Z,24.25
2018-03-17T12:41:48.606Z,19.70
2018-03-17T12:44:14.925Z,22.45
2018-03-17T12:46:43.022Z,23.23
2018-03-17T12:49:09.344Z,20.58
2018-03-17T12:51:35.731Z,23.20
2018-03-17T12:54:02.044Z,24.58
2018-03-17T12:56:28.363Z,22.83
2018-03-17T12:58:54.674Z,25.15
2018-03-17T13:01:20.981Z,23.62
2018-03-17T13:03:48.042Z,25.65
2018-03-17T13:06:14.361Z,28.12
2018-03-17T13:08:41.414Z,22.92
2018-03-17T13:11:08.467Z,21.73
2018-03-17T13:13:34.778Z,21.65
2018-03-17T13:16:01.835Z,20.73
2018-03-17T13:18:28.900Z,23.00
2018-03-17T13:20:55.234Z,25.20
2018-03-17T13:23:21.554Z,23.05
2018-03-17T13:25:47.868Z,23.98
2018-03-17T13:28:31.758Z,21.37
2018-03-17T13:30:58.091Z,22.33
2018-03-17T13:33:24.422Z,18.48
2018-03-17T13:36:03.234Z,17.92
2018-03-17T13:38:29.672Z,20.00
2018-03-17T13:40:56.103Z,18.20
2018-03-17T13:43:22.563Z,17.12
2018-03-17T13:45:49.947Z,20.30
2018-03-17T13:48:16.377Z,16.17
2018-03-17T13:50:42.702Z,17.58
2018-03-17T13:53:09.035Z,18.92
2018-03-17T13:55:37.866Z,16.73
2018-03-17T13:58:04.191Z,17.98
2018-03-17T14:00:30.639Z,18.20
2018-03-17T14:02:57.109Z,16.98
2018-03-17T14:05:23.529Z,16.70
2018-03-17T14:07:49.975Z,19.52
2018-03-17T14:10:16.949Z,16.77
2018-03-17T14:12:43.309Z,15.48
2018-03-17T14:15:09.634Z,15.77
2018-03-17T14:17:35.963Z,19.73
2018-03-17T14:20:03.096Z,15.13
2018-03-17T14:22:30.271Z,17.62
2018-03-17T14:24:56.655Z,17.50
2018-03-17T14:27:22.979Z,19.98
2018-03-17T14:29:49.298Z,18.52
2018-03-17T14:32:15.638Z,16.02
2018-03-17T14:34:42.971Z,22.20
2018-03-17T14:37:10.286Z,16.35
2018-03-17T14:39:37.431Z,20.25
2018-03-17T14:42:04.503Z,19.52
2018-03-17T14:44:30.809Z,19.95
2018-03-17T14:46:57.882Z,21.50
2018-03-17T14:49:25.224Z,19.00
2018-03-17T14:51:51.551Z,17.95
2018-03-17T14:54:17.864Z,26.65
2018-03-17T14:56:45.006Z,20.17
2018-03-17T14:59:11.325Z,20.08
2018-03-17T15:01:37.643Z,23.15
2018-03-17T15:04:04.018Z,16.45
2018-03-17T15:06:32.082Z,22.83
2018-03-17T15:08:59.142Z,21.50
2018-03-17T15:11:25.458Z,23.02
2018-03-17T15:13:51.806Z,18.83
2018-03-17T15:16:18.138Z,18.37
2018-03-17T15:18:44.482Z,23.00
2018-03-17T15:21:11.700Z,22.30
2018-03-17T15:23:38.762Z,20.15
2018-03-17T15:26:05.814Z,21.08
2018-03-17T15:28:32.129Z,21.75
2018-03-17T15:30:59.183Z,24.23
2018-03-17T15:33:26.259Z,22.65
2018-03-17T15:35:52.595Z,24.63
2018-03-17T15:38:18.913Z,31.80
2018-03-17T15:40:45.456Z,25.48
2018-03-17T15:43:11.765Z,29.37
2018-03-17T15:45:38.083Z,27.95
2018-03-17T15:48:05.145Z,27.25
2018-03-17T15:50:31.485Z,30.40
2018-03-17T15:52:57.803Z,29.42
2018-03-17T15:55:24.123Z,33.78
2018-03-17T15:57:51.180Z,31.23
2018-03-17T16:00:17.532Z,27.70
2018-03-17T16:02:43.854Z,31.20
2018-03-17T16:05:10.179Z,33.95
2018-03-17T16:07:37.238Z,37.33
2018-03-17T16:10:03.596Z,27.75
2018-03-17T16:12:29.931Z,34.13
2018-03-17T16:14:57.234Z,29.80
2018-03-17T16:17:24.289Z,30.65
2018-03-17T16:19:51.352Z,33.78
2018-03-17T16:22:17.678Z,31.35
2018-03-17T16:24:43.999Z,34.65
2018-03-17T16:27:11.047Z,29.87
2018-03-17T16:29:39.090Z,35.25
2018-03-17T16:32:06.164Z,142.75
2018-03-17T16:34:33.247Z,43.75
2018-03-17T16:36:59.579Z,41.10
2018-03-17T16:39:25.967Z,41.78
2018-03-17T16:41:53.020Z,59.60
2018-03-17T16:44:20.083Z,43.55
2018-03-17T16:46:46.426Z,48.25
2018-03-17T16:49:12.764Z,60.92
2018-03-17T16:51:39.131Z,36.20
2018-03-17T16:54:05.481Z,40.25
2018-03-17T16:56:31.833Z,36.45
2018-03-17T16:58:58.898Z,34.03
2018-03-17T17:01:25.237Z,37.22
2018-03-17T17:03:51.587Z,34.50
2018-03-17T17:06:17.939Z,41.53
2018-03-17T17:08:45.065Z,35.50
2018-03-17T17:11:12.375Z,33.78
2018-03-17T17:13:39.440Z,38.97
2018-03-17T17:16:05.751Z,35.95
2018-03-17T17:18:33.870Z,35.33
2018-03-17T17:21:00.179Z,41.28
2018-03-17T17:23:27.527Z,40.92
2018-03-17T17:25:53.839Z,37.50
2018-03-17T17:28:20.934Z,42.92
2018-03-17T17:30:47.257Z,39.95
2018-03-17T17:33:13.579Z,47.28
2018-03-17T17:35:39.905Z,38.05
2018-03-17T17:38:06.224Z,39.30
2018-03-17T17:40:32.554Z,42.58
2018-03-17T17:42:58.887Z,40.35
2018-03-17T17:45:25.199Z,40.60
2018-03-17T17:47:52.267Z,39.20
2018-03-17T17:50:18.595Z,48.78
2018-03-17T17:52:44.904Z,47.50
2018-03-17T17:55:11.954Z,40.17
2018-03-17T17:57:39.018Z,42.08
2018-03-17T18:00:05.354Z,45.03
2018-03-17T18:02:33.459Z,47.85
2018-03-17T18:04:59.758Z,45.83
2018-03-17T18:07:26.063Z,41.42
2018-03-17T18:09:53.115Z,45.25
2018-03-17T18:12:20.204Z,40.05
2018-03-17T18:14:47.571Z,39.75
2018-03-17T18:17:14.934Z,40.58
2018-03-17T18:19:41.261Z,42.55
2018-03-17T18:22:08.600Z,42.10
2018-03-17T18:24:34.914Z,33.75
2018-03-17T18:27:01.236Z,36.50
2018-03-17T18:29:27.547Z,35.63
2018-03-17T18:31:54.830Z,42.45
2018-03-17T18:34:21.146Z,43.63
2018-03-17T18:36:48.203Z,45.42
2018-03-17T18:39:14.601Z,36.45
2018-03-17T18:41:40.965Z,35.65
2018-03-17T18:44:07.257Z,34.97
2018-03-17T18:46:33.596Z,37.13
2018-03-17T18:49:00.215Z,37.17
2018-03-17T18:51:26.530Z,34.63
2018-03-17T18:53:52.867Z,36.35
2018-03-17T18:56:19.226Z,39.80
2018-03-17T18:58:45.614Z,36.13
2018-03-17T19:01:11.923Z,38.28
2018-03-17T19:03:38.231Z,38.10
2018-03-17T19:06:05.282Z,43.40
2018-03-17T19:08:32.378Z,38.80
2018-03-17T19:10:58.741Z,38.85
2018-03-17T19:13:25.063Z,39.83
2018-03-17T19:15:51.390Z,44.30
2018-03-17T19:18:18.017Z,38.03
2018-03-17T19:20:44.354Z,42.08
2018-03-17T19:23:10.687Z,47.47
2018-03-17T19:25:37.011Z,38.35
2018-03-17T19:28:03.327Z,40.10
2018-03-17T19:30:29.662Z,43.25
2018-03-17T19:32:55.983Z,44.13
2018-03-17T19:35:22.319Z,88.45
2018-03-17T19:37:48.622Z,71.43
2018-03-17T19:40:14.942Z,44.03
2018-03-17T19:42:42.016Z,39.00
2018-03-17T19:45:08.323Z,42.92
2018-03-17T19:47:34.652Z,50.63
2018-03-17T19:50:01.704Z,39.75
2018-03-17T19:52:28.030Z,42.67
2018-03-17T19:54:55.075Z,43.55
2018-03-17T19:57:22.151Z,42.20
2018-03-17T19:59:48.462Z,46.20
2018-03-17T20:02:14.818Z,41.92
2018-03-17T20:04:41.143Z,36.95
2018-03-17T20:07:07.446Z,41.90
2018-03-17T20:09:34.490Z,44.78
2018-03-17T20:12:01.539Z,40.28
2018-03-17T20:14:28.613Z,43.22
2018-03-17T20:16:54.923Z,39.08
2018-03-17T20:19:21.247Z,43.47
2018-03-17T20:21:48.307Z,42.60
2018-03-17T20:24:14.627Z,35.00
2018-03-17T20:26:42.781Z,40.40
2018-03-17T20:29:09.086Z,38.08
2018-03-17T20:31:35.402Z,38.13
2018-03-17T20:34:01.730Z,35.72
2018-03-17T20:36:28.072Z,35.83
2018-03-17T20:38:54.424Z,36.08
2018-03-17T20:41:20.742Z,39.53
2018-03-17T20:43:47.095Z,37.05
2018-03-17T20:46:13.410Z,35.83
2018-03-17T20:48:39.751Z,38.20
2018-03-17T20:51:07.109Z,34.80
2018-03-17T20:53:33.471Z,36.03
2018-03-17T20:55:59.792Z,34.03
2018-03-17T20:58:26.846Z,37.63
2018-03-17T21:00:53.159Z,37.58
2018-03-17T21:03:20.221Z,35.53
2018-03-17T21:05:47.292Z,35.88
2018-03-17T21:08:13.622Z,45.15
2018-03-17T21:10:39.930Z,33.03
2018-03-17T21:13:06.990Z,35.38
2018-03-17T21:15:33.301Z,37.50
2018-03-17T21:18:00.364Z,40.70
2018-03-17T21:20:27.410Z,31.23
2018-03-17T21:22:54.467Z,37.38
2018-03-17T21:25:20.791Z,34.08
2018-03-17T21:27:47.846Z,43.90
2018-03-17T21:30:14.154Z,38.78
2018-03-17T21:32:41.231Z,41.13
2018-03-17T21:35:07.554Z,38.90
2018-03-17T21:37:33.866Z,34.58
2018-03-17T21:40:00.998Z,37.80
2018-03-17T21:42:27.544Z,39.67
2018-03-17T21:44:54.624Z,37.70
2018-03-17T21:47:22.990Z,40.83
2018-03-17T21:49:50.099Z,36.33
2018-03-17T21:52:16.420Z,33.38
2018-03-17T21:54:43.502Z,40.25
2018-03-17T21:57:10.558Z,35.42
2018-03-17T21:59:37.617Z,37.10
2018-03-17T22:02:03.987Z,38.25
2018-03-17T22:04:30.304Z,37.55
2018-03-17T22:06:57.669Z,37.25
2018-03-17T22:09:24.008Z,35.88
2018-03-17T22:11:50.321Z,33.90
2018-03-17T22:14:16.640Z,38.60
2018-03-17T22:16:42.987Z,34.80
2018-03-17T22:19:09.319Z,35.28
2018-03-17T22:21:35.634Z,36.20
2018-03-17T22:24:01.994Z,40.88
2018-03-17T22:26:28.305Z,36.70
2018-03-17T22:28:54.639Z,43.72
2018-03-17T22:31:20.955Z,44.28
2018-03-17T22:33:47.315Z,46.97
2018-03-17T22:36:13.635Z,40.40
2018-03-17T22:38:39.961Z,41.33
2018-03-17T22:41:07.314Z,38.25
2018-03-17T22:43:33.639Z,38.38
2018-03-17T22:45:59.981Z,44.25
2018-03-17T22:48:26.294Z,43.78
2018-03-17T22:50:53.661Z,40.58
2018-03-17T22:53:19.975Z,37.10
2018-03-17T22:55:46.316Z,40.53
2018-03-17T22:58:12.626Z,44.65
2018-03-17T23:00:39.973Z,43.03
2018-03-17T23:03:07.022Z,45.03
2018-03-17T23:05:34.254Z,44.63
2018-03-17T23:08:01.318Z,42.78
2018-03-17T23:10:28.374Z,42.30
2018-03-17T23:12:55.448Z,41.97
2018-03-17T23:15:21.821Z,39.20
2018-03-17T23:17:48.194Z,42.67
2018-03-17T23:20:14.527Z,42.10
2018-03-17T23:22:40.842Z,35.38
2018-03-17T23:25:07.908Z,43.28
2018-03-17T23:27:34.239Z,43.10
2018-03-17T23:30:00.595Z,38.42
2018-03-17T23:32:26.948Z,37.05
2018-03-17T23:34:53.304Z,40.17
2018-03-17T23:37:21.457Z,38.50
2018-03-17T23:39:47.826Z,42.53
2018-03-17T23:42:14.162Z,42.83
2018-03-17T23:44:40.482Z,37.05
2018-03-17T23:47:08.555Z,39.42
2018-03-17T23:49:35.873Z,42.80
2018-03-17T23:52:02.235Z,40.35
2018-03-17T23:54:29.323Z,41.72
2018-03-17T23:56:56.667Z,37.00
2018-03-17T23:59:23.006Z,41.67
